createdAt,value
2018-08-03T00:01:26.589Z,7.53
2018-08-03T00:03:59.986Z,7.50
2018-08-03T00:06:28.782Z,7.53
2018-08-03T00:09:13.535Z,7.57
2018-08-03T00:11:41.334Z,7.53
2018-08-03T00:14:09.022Z,9.77
2018-08-03T00:16:36.848Z,8.00
2018-08-03T00:19:04.635Z,8.93
2018-08-03T00:21:32.465Z,8.17
2018-08-03T00:24:00.312Z,7.50
2018-08-03T00:26:28.219Z,8.20
2018-08-03T00:28:55.975Z,7.53
2018-08-03T00:31:23.700Z,8.70
2018-08-03T00:33:51.422Z,8.60
2018-08-03T00:36:19.282Z,7.73
2018-08-03T00:38:47.164Z,7.70
2018-08-03T00:41:15.024Z,7.80
2018-08-03T00:43:43.042Z,8.70
2018-08-03T00:46:10.822Z,8.93
2018-08-03T00:48:38.704Z,8.07
2018-08-03T00:51:06.521Z,8.63
2018-08-03T00:53:34.388Z,8.37
2018-08-03T00:56:02.187Z,7.93
2018-08-03T00:58:29.980Z,10.13
2018-08-03T01:00:57.601Z,7.80
2018-08-03T01:03:25.533Z,8.20
2018-08-03T01:05:57.067Z,10.40
2018-08-03T01:08:24.887Z,8.00
2018-08-03T01:10:52.673Z,8.63
2018-08-03T01:13:20.483Z,7.83
2018-08-03T01:15:48.272Z,8.60
2018-08-03T01:18:16.116Z,9.47
2018-08-03T01:20:43.956Z,8.13
2018-08-03T01:23:11.856Z,9.07
2018-08-03T01:25:39.690Z,8.20
2018-08-03T01:28:07.439Z,11.57
2018-08-03T01:30:35.337Z,8.70
2018-08-03T01:33:03.170Z,8.20
2018-08-03T01:35:30.997Z,8.90
2018-08-03T01:37:58.996Z,8.37
2018-08-03T01:40:26.822Z,7.90
2018-08-03T01:42:54.773Z,8.40
2018-08-03T01:45:22.547Z,8.17
2018-08-03T01:47:50.496Z,7.83
2018-08-03T01:50:18.342Z,8.63
2018-08-03T01:52:46.270Z,9.43
2018-08-03T01:55:14.069Z,9.50
2018-08-03T01:57:41.906Z,8.97
2018-08-03T02:00:09.687Z,9.67
2018-08-03T02:02:37.423Z,10.10
2018-08-03T02:05:05.192Z,8.27
2018-08-03T02:07:33.021Z,9.10
2018-08-03T02:10:00.824Z,8.47
2018-08-03T02:12:28.604Z,9.03
2018-08-03T02:14:56.452Z,8.93
2018-08-03T02:17:24.202Z,9.83
2018-08-03T02:19:51.886Z,9.90
2018-08-03T02:22:19.620Z,9.67
2018-08-03T02:24:47.476Z,9.20
2018-08-03T02:27:15.292Z,10.20
2018-08-03T02:29:43.204Z,9.80
2018-08-03T02:32:11.115Z,10.33
2018-08-03T02:34:38.982Z,9.50
2018-08-03T02:37:06.771Z,9.70
2018-08-03T02:39:34.561Z,9.83
2018-08-03T02:42:02.698Z,9.97
2018-08-03T02:44:30.461Z,9.93
2018-08-03T02:46:58.384Z,9.70
2018-08-03T02:49:26.221Z,8.90
2018-08-03T02:51:53.994Z,10.40
2018-08-03T02:54:21.873Z,9.27
2018-08-03T02:56:49.504Z,9.50
2018-08-03T02:59:17.316Z,9.40
2018-08-03T03:01:45.042Z,10.73
2018-08-03T03:04:12.733Z,9.87
2018-08-03T03:06:40.485Z,10.60
2018-08-03T03:09:09.828Z,9.53
2018-08-03T03:11:37.642Z,9.20
2018-08-03T03:14:05.820Z,11.03
2018-08-03T03:16:33.550Z,11.77
2018-08-03T03:19:01.412Z,9.43
2018-08-03T03:21:29.097Z,10.07
2018-08-03T03:23:56.859Z,10.07
2018-08-03T03:26:24.657Z,11.43
2018-08-03T03:28:52.389Z,11.17
2018-08-03T03:31:20.058Z,14.37
2018-08-03T03:33:47.840Z,10.80
2018-08-03T03:36:15.672Z,9.47
2018-08-03T03:38:43.437Z,10.60
2018-08-03T03:41:11.262Z,10.47
2018-08-03T03:43:39.107Z,10.67
2018-08-03T03:46:07.486Z,10.20
2018-08-03T03:48:35.275Z,12.37
2018-08-03T03:51:03.196Z,10.30
2018-08-03T03:53:30.883Z,10.80
2018-08-03T03:55:58.706Z,11.63
2018-08-03T03:58:26.566Z,10.80
2018-08-03T04:00:54.418Z,10.90
2018-08-03T04:03:22.303Z,14.13
2018-08-03T04:05:49.980Z,11.83
2018-08-03T04:08:17.960Z,10.63
2018-08-03T04:10:45.770Z,12.43
2018-08-03T04:13:13.572Z,13.57
2018-08-03T04:15:41.310Z,12.87
2018-08-03T04:18:12.618Z,13.77
2018-08-03T04:20:40.484Z,12.17
2018-08-03T04:23:08.321Z,11.63
2018-08-03T04:25:36.042Z,12.70
2018-08-03T04:28:03.818Z,13.80
2018-08-03T04:30:31.723Z,11.20
2018-08-03T04:32:59.425Z,11.90
2018-08-03T04:35:27.155Z,11.30
2018-08-03T04:37:54.960Z,10.87
2018-08-03T04:40:22.736Z,11.40
2018-08-03T04:42:50.425Z,11.80
2018-08-03T04:45:18.349Z,13.90
2018-08-03T04:47:46.150Z,13.27
2018-08-03T04:50:13.886Z,13.20
2018-08-03T04:52:41.665Z,15.60
2018-08-03T04:55:09.656Z,14.50
2018-08-03T04:57:37.504Z,14.00
2018-08-03T05:00:05.531Z,17.00
2018-08-03T05:02:33.544Z,14.27
2018-08-03T05:05:01.464Z,13.83
2018-08-03T05:07:29.274Z,14.60
2018-08-03T05:09:57.196Z,15.30
2018-08-03T05:12:24.955Z,15.03
2018-08-03T05:14:52.817Z,12.67
2018-08-03T05:17:20.732Z,16.30
2018-08-03T05:19:48.522Z,16.10
2018-08-03T05:22:16.360Z,16.30
2018-08-03T05:24:44.243Z,16.37
2018-08-03T05:27:12.088Z,16.07
2018-08-03T05:29:39.784Z,19.60
2018-08-03T05:32:07.562Z,16.63
2018-08-03T05:34:35.370Z,19.87
2018-08-03T05:37:03.159Z,19.37
2018-08-03T05:39:31.020Z,15.43
2018-08-03T05:41:58.883Z,17.87
2018-08-03T05:44:26.801Z,17.30
2018-08-03T05:46:54.640Z,16.07
2018-08-03T05:49:22.456Z,16.97
2018-08-03T05:51:50.407Z,17.27
2018-08-03T05:54:18.160Z,16.37
2018-08-03T05:56:46.075Z,16.47
2018-08-03T05:59:13.916Z,14.50
2018-08-03T06:01:41.990Z,14.20
2018-08-03T06:04:09.781Z,11.90
2018-08-03T06:06:37.568Z,12.60
2018-08-03T06:09:07.915Z,12.60
2018-08-03T06:11:35.972Z,12.57
2018-08-03T06:14:04.416Z,11.93
2018-08-03T06:16:32.422Z,12.67
2018-08-03T06:19:00.216Z,11.83
2018-08-03T06:21:28.325Z,12.00
2018-08-03T06:23:56.055Z,9.73
2018-08-03T06:26:23.860Z,11.43
2018-08-03T06:28:51.843Z,11.23
2018-08-03T06:31:19.593Z,11.30
2018-08-03T06:33:47.753Z,10.83
2018-08-03T06:36:15.484Z,12.00
2018-08-03T06:38:43.341Z,10.97
2018-08-03T06:41:11.216Z,11.77
2018-08-03T06:43:39.138Z,12.53
2018-08-03T06:46:07.031Z,11.03
2018-08-03T06:48:35.084Z,9.50
2018-08-03T06:51:03.014Z,11.33
2018-08-03T06:53:30.823Z,12.33
2018-08-03T06:55:58.598Z,9.63
2018-08-03T06:58:26.341Z,11.10
2018-08-03T07:00:54.290Z,10.97
2018-08-03T07:03:22.008Z,13.30
2018-08-03T07:05:49.728Z,12.33
2018-08-03T07:08:17.617Z,11.53
2018-08-03T07:10:45.378Z,13.15
2018-08-03T07:13:13.267Z,11.15
2018-08-03T07:15:41.077Z,10.13
2018-08-03T07:18:08.971Z,10.23
2018-08-03T07:20:37.138Z,11.80
2018-08-03T07:23:04.967Z,12.05
2018-08-03T07:25:43.299Z,10.88
2018-08-03T07:28:11.181Z,10.00
2018-08-03T07:30:38.972Z,8.83
2018-08-03T07:33:06.893Z,9.13
2018-08-03T07:35:34.707Z,11.70
2018-08-03T07:38:02.491Z,8.85
2018-08-03T07:40:30.199Z,9.05
2018-08-03T07:42:58.078Z,9.48
2018-08-03T07:45:25.931Z,8.80
2018-08-03T07:47:53.716Z,9.28
2018-08-03T07:50:21.544Z,12.10
2018-08-03T07:52:49.332Z,10.27
2018-08-03T07:55:17.208Z,10.23
2018-08-03T07:57:45.083Z,9.87
2018-08-03T08:00:12.991Z,12.47
2018-08-03T08:02:40.617Z,14.97
2018-08-03T08:05:08.966Z,10.07
2018-08-03T08:07:36.807Z,9.98
2018-08-03T08:10:04.972Z,10.50
2018-08-03T08:12:32.793Z,10.43
2018-08-03T08:15:00.614Z,13.43
2018-08-03T08:17:28.434Z,14.17
2018-08-03T08:19:56.414Z,10.97
2018-08-03T08:22:24.293Z,12.03
2018-08-03T08:24:52.157Z,12.97
2018-08-03T08:27:20.035Z,10.60
2018-08-03T08:29:47.847Z,10.87
2018-08-03T08:32:15.610Z,11.63
2018-08-03T08:34:43.610Z,11.57
2018-08-03T08:37:11.425Z,12.13
2018-08-03T08:39:39.500Z,10.87
2018-08-03T08:42:08.303Z,11.97
2018-08-03T08:44:36.144Z,12.33
2018-08-03T08:47:03.970Z,12.10
2018-08-03T08:49:31.985Z,15.77
2018-08-03T08:51:59.808Z,13.63
2018-08-03T08:54:27.702Z,12.33
2018-08-03T08:57:03.709Z,16.03
2018-08-03T08:59:31.674Z,13.97
2018-08-03T09:02:00.507Z,12.77
2018-08-03T09:04:28.494Z,12.30
2018-08-03T09:06:58.334Z,14.50
2018-08-03T09:09:26.202Z,15.13
2018-08-03T09:11:53.989Z,13.70
2018-08-03T09:14:21.880Z,13.97
2018-08-03T09:17:05.787Z,12.87
2018-08-03T09:19:33.666Z,12.68
2018-08-03T09:22:01.668Z,12.83
2018-08-03T09:24:45.503Z,12.40
2018-08-03T09:27:13.785Z,15.03
2018-08-03T09:29:41.733Z,13.27
2018-08-03T09:32:09.523Z,13.53
2018-08-03T09:34:37.508Z,15.87
2018-08-03T09:37:05.467Z,13.40
2018-08-03T09:39:42.826Z,12.87
2018-08-03T09:42:14.501Z,13.03
2018-08-03T09:44:42.298Z,13.63
2018-08-03T09:47:13.747Z,14.30
2018-08-03T09:49:52.885Z,13.63
2018-08-03T09:52:20.746Z,13.30
2018-08-03T09:54:48.779Z,12.83
2018-08-03T09:57:16.614Z,14.60
2018-08-03T09:59:44.562Z,13.73
2018-08-03T10:02:12.380Z,15.10
2018-08-03T10:04:40.485Z,12.93
2018-08-03T10:07:08.168Z,12.90
2018-08-03T10:09:35.927Z,13.20
2018-08-03T10:12:03.701Z,13.43
2018-08-03T10:14:31.663Z,12.50
2018-08-03T10:16:59.776Z,12.53
2018-08-03T10:19:27.825Z,14.00
2018-08-03T10:21:57.052Z,14.27
2018-08-03T10:24:25.286Z,12.87
2018-08-03T10:26:53.351Z,12.53
2018-08-03T10:29:21.170Z,12.77
2018-08-03T10:31:49.224Z,13.73
2018-08-03T10:34:17.291Z,11.83
2018-08-03T10:36:45.332Z,12.63
2018-08-03T10:39:13.410Z,11.90
2018-08-03T10:41:41.534Z,11.70
2018-08-03T10:44:10.689Z,12.03
2018-08-03T10:46:38.726Z,14.97
2018-08-03T10:49:06.964Z,11.53
2018-08-03T10:51:35.993Z,12.77
2018-08-03T10:54:05.576Z,12.70
2018-08-03T10:56:34.404Z,12.40
2018-08-03T10:59:03.633Z,13.70
2018-08-03T11:01:31.780Z,12.27
2018-08-03T11:03:59.671Z,11.70
2018-08-03T11:06:29.892Z,12.20
2018-08-03T11:08:57.915Z,12.13
2018-08-03T11:11:25.821Z,11.87
2018-08-03T11:13:54.740Z,10.87
2018-08-03T11:16:22.688Z,10.63
2018-08-03T11:18:50.592Z,11.35
2018-08-03T11:21:18.487Z,11.45
2018-08-03T11:23:46.441Z,12.80
2018-08-03T11:26:14.426Z,12.13
2018-08-03T11:28:42.600Z,14.20
2018-08-03T11:31:11.646Z,12.07
2018-08-03T11:33:39.517Z,11.70
2018-08-03T11:36:08.118Z,12.93
2018-08-03T11:38:36.915Z,15.37
2018-08-03T11:41:10.654Z,15.95
2018-08-03T11:43:39.331Z,12.85
2018-08-03T11:46:07.515Z,12.37
2018-08-03T11:48:35.896Z,11.67
2018-08-03T11:51:03.839Z,12.77
2018-08-03T11:53:37.420Z,13.20
2018-08-03T11:56:07.235Z,12.07
2018-08-03T11:58:35.351Z,12.03
2018-08-03T12:01:03.345Z,14.65
2018-08-03T12:03:31.111Z,12.00
2018-08-03T12:05:58.925Z,11.53
2018-08-03T12:08:26.774Z,12.37
2018-08-03T12:10:54.611Z,12.25
2018-08-03T12:13:22.455Z,12.05
2018-08-03T12:15:50.345Z,12.90
2018-08-03T12:18:18.320Z,12.50
2018-08-03T12:20:46.757Z,13.45
2018-08-03T12:23:14.557Z,11.10
2018-08-03T12:25:43.721Z,15.38
2018-08-03T12:28:12.196Z,12.17
2018-08-03T12:30:40.122Z,11.97
2018-08-03T12:33:08.020Z,12.03
2018-08-03T12:35:35.935Z,11.57
2018-08-03T12:38:04.448Z,11.47
2018-08-03T12:40:32.465Z,14.45
2018-08-03T12:43:00.163Z,12.40
2018-08-03T12:45:33.994Z,12.83
2018-08-03T12:47:55.913Z,12.20
2018-08-03T12:50:23.780Z,14.03
2018-08-03T12:52:51.729Z,15.43
2018-08-03T12:55:19.546Z,11.93
2018-08-03T12:57:47.377Z,13.40
2018-08-03T13:00:15.186Z,11.27
2018-08-03T13:02:42.953Z,11.30
2018-08-03T13:05:10.707Z,12.47
2018-08-03T13:07:38.782Z,11.45
2018-08-03T13:10:06.622Z,13.47
2018-08-03T13:12:34.718Z,11.57
2018-08-03T13:15:02.643Z,12.58
2018-08-03T13:17:30.694Z,11.12
2018-08-03T13:19:58.600Z,10.98
2018-08-03T13:22:26.552Z,10.65
2018-08-03T13:24:54.693Z,11.73
2018-08-03T13:27:22.706Z,10.58
2018-08-03T13:29:50.642Z,10.93
2018-08-03T13:32:18.606Z,10.70
2018-08-03T13:34:47.544Z,10.77
2018-08-03T13:37:15.467Z,11.12
2018-08-03T13:39:43.953Z,11.38
2018-08-03T13:42:11.936Z,11.80
2018-08-03T13:44:40.188Z,10.93
2018-08-03T13:47:08.731Z,11.22
2018-08-03T13:49:37.088Z,10.68
2018-08-03T13:52:08.385Z,10.13
2018-08-03T13:54:36.741Z,10.78
2018-08-03T13:57:06.658Z,11.55
2018-08-03T13:59:35.142Z,10.45
2018-08-03T14:02:19.344Z,10.77
2018-08-03T14:04:47.607Z,11.97
2018-08-03T14:07:15.360Z,10.72
2018-08-03T14:09:55.324Z,11.22
2018-08-03T14:12:23.254Z,10.43
2018-08-03T14:14:51.139Z,10.53
2018-08-03T14:17:19.096Z,10.53
2018-08-03T14:19:46.924Z,14.63
2018-08-03T14:22:14.774Z,10.90
2018-08-03T14:24:42.660Z,11.00
2018-08-03T14:27:10.589Z,10.53
2018-08-03T14:29:38.613Z,11.35
2018-08-03T14:32:06.851Z,11.78
2018-08-03T14:34:35.450Z,11.03
2018-08-03T14:37:03.376Z,10.90
2018-08-03T14:39:32.030Z,10.80
2018-08-03T14:42:00.866Z,11.00
2018-08-03T14:44:28.736Z,10.40
2018-08-03T14:46:56.694Z,10.82
2018-08-03T14:49:25.876Z,10.75
2018-08-03T14:51:54.009Z,10.78
2018-08-03T14:54:22.388Z,11.10
2018-08-03T14:56:50.397Z,11.25
2018-08-03T14:59:18.391Z,11.40
2018-08-03T15:01:46.429Z,11.43
2018-08-03T15:04:16.160Z,9.70
2018-08-03T15:06:44.961Z,10.40
2018-08-03T15:09:12.784Z,10.10
2018-08-03T15:11:40.794Z,10.25
2018-08-03T15:14:08.775Z,10.33
2018-08-03T15:16:36.648Z,11.93
2018-08-03T15:19:04.764Z,11.08
2018-08-03T15:21:34.304Z,11.38
2018-08-03T15:24:02.148Z,10.60
2018-08-03T15:26:30.843Z,9.88
2018-08-03T15:28:58.754Z,10.88
2018-08-03T15:31:26.629Z,9.65
2018-08-03T15:33:54.394Z,11.25
2018-08-03T15:36:22.239Z,11.57
2018-08-03T15:38:50.108Z,12.23
2018-08-03T15:41:17.805Z,10.80
2018-08-03T15:43:45.723Z,10.70
2018-08-03T15:46:13.477Z,10.32
2018-08-03T15:48:41.320Z,10.75
2018-08-03T15:51:09.223Z,10.93
2018-08-03T15:53:37.102Z,13.00
2018-08-03T15:56:05.060Z,11.48
2018-08-03T15:58:32.786Z,11.25
2018-08-03T16:01:00.504Z,11.15
2018-08-03T16:03:28.432Z,10.70
2018-08-03T16:05:56.234Z,10.60
2018-08-03T16:08:24.127Z,11.30
2018-08-03T16:10:52.180Z,10.32
2018-08-03T16:13:20.030Z,10.27
2018-08-03T16:15:47.850Z,10.85
2018-08-03T16:18:15.661Z,11.38
2018-08-03T16:20:43.600Z,14.13
2018-08-03T16:23:11.504Z,11.27
2018-08-03T16:25:39.432Z,11.45
2018-08-03T16:28:07.355Z,11.33
2018-08-03T16:30:35.422Z,12.63
2018-08-03T16:33:03.358Z,11.50
2018-08-03T16:35:31.247Z,10.97
2018-08-03T16:37:59.217Z,13.93
2018-08-03T16:40:27.014Z,10.50
2018-08-03T16:42:54.891Z,11.10
2018-08-03T16:45:23.587Z,11.48
2018-08-03T16:47:55.963Z,12.10
2018-08-03T16:50:24.936Z,11.10
2018-08-03T16:52:53.440Z,10.20
2018-08-03T16:55:21.861Z,10.83
2018-08-03T16:57:49.649Z,11.10
2018-08-03T17:00:18.368Z,10.80
2018-08-03T17:02:47.406Z,11.70
2018-08-03T17:05:15.266Z,10.30
2018-08-03T17:07:43.114Z,10.60
2018-08-03T17:10:10.949Z,11.70
2018-08-03T17:12:39.054Z,12.40
2018-08-03T17:15:06.947Z,10.67
2018-08-03T17:17:37.986Z,10.77
2018-08-03T17:20:06.003Z,11.50
2018-08-03T17:22:33.860Z,11.28
2018-08-03T17:25:03.679Z,10.57
2018-08-03T17:27:31.534Z,12.23
2018-08-03T17:30:00.423Z,12.30
2018-08-03T17:32:32.751Z,11.77
2018-08-03T17:35:02.584Z,11.67
2018-08-03T17:37:30.576Z,11.00
2018-08-03T17:39:58.569Z,12.20
2018-08-03T17:42:26.951Z,11.33
2018-08-03T17:44:54.856Z,11.83
2018-08-03T17:47:22.738Z,12.90
2018-08-03T17:49:51.509Z,13.70
2018-08-03T17:52:19.470Z,12.70
2018-08-03T17:54:47.509Z,12.27
2018-08-03T17:57:25.696Z,13.87
2018-08-03T17:59:56.735Z,14.00
2018-08-03T18:02:24.677Z,12.20
2018-08-03T18:04:52.788Z,12.60
2018-08-03T18:07:20.898Z,12.60
2018-08-03T18:09:48.706Z,12.97
2018-08-03T18:12:16.512Z,17.83
2018-08-03T18:14:44.192Z,21.83
2018-08-03T18:17:12.013Z,86.70
2018-08-03T18:19:40.235Z,58.40
2018-08-03T18:22:08.201Z,59.80
2018-08-03T18:24:36.444Z,28.93
2018-08-03T18:27:05.349Z,19.50
2018-08-03T18:29:33.532Z,12.37
2018-08-03T18:32:01.597Z,12.13
2018-08-03T18:34:29.725Z,12.23
2018-08-03T18:36:57.969Z,12.13
2018-08-03T18:39:26.009Z,11.90
2018-08-03T18:41:54.549Z,11.60
2018-08-03T18:44:27.131Z,11.97
2018-08-03T18:46:55.039Z,12.87
2018-08-03T18:49:23.349Z,13.00
2018-08-03T18:51:51.466Z,13.77
2018-08-03T18:54:19.396Z,14.40
2018-08-03T18:56:47.644Z,12.67
2018-08-03T18:59:15.485Z,12.33
2018-08-03T19:01:43.448Z,12.77
2018-08-03T19:04:11.514Z,12.47
2018-08-03T19:06:45.349Z,12.80
2018-08-03T19:09:13.161Z,11.57
2018-08-03T19:11:45.933Z,11.70
2018-08-03T19:14:13.791Z,12.87
2018-08-03T19:16:41.993Z,12.73
2018-08-03T19:19:10.032Z,16.07
2018-08-03T19:21:38.623Z,17.30
2018-08-03T19:24:07.021Z,12.57
2018-08-03T19:26:35.604Z,12.93
2018-08-03T19:29:03.761Z,11.10
2018-08-03T19:31:31.655Z,12.10
2018-08-03T19:33:59.835Z,10.67
2018-08-03T19:36:27.966Z,11.37
2018-08-03T19:39:01.270Z,11.47
2018-08-03T19:41:29.121Z,10.70
2018-08-03T19:43:56.891Z,11.97
2018-08-03T19:46:35.826Z,13.17
2018-08-03T19:49:04.298Z,13.70
2018-08-03T19:51:34.559Z,12.40
2018-08-03T19:54:03.002Z,12.63
2018-08-03T19:56:30.954Z,13.73
2018-08-03T19:58:58.882Z,12.63
2018-08-03T20:01:26.833Z,12.40
2018-08-03T20:03:55.740Z,12.40
2018-08-03T20:06:28.410Z,12.67
2018-08-03T20:08:57.442Z,13.40
2018-08-03T20:11:25.581Z,15.60
2018-08-03T20:13:53.542Z,16.17
2018-08-03T20:16:21.606Z,15.63
2018-08-03T20:18:49.553Z,13.93
2018-08-03T20:21:17.374Z,15.57
2018-08-03T20:23:45.269Z,14.43
2018-08-03T20:26:23.628Z,14.83
2018-08-03T20:28:57.667Z,14.30
2018-08-03T20:31:32.637Z,14.73
2018-08-03T20:34:00.680Z,14.40
2018-08-03T20:36:29.133Z,13.60
2018-08-03T20:39:01.116Z,12.60
2018-08-03T20:41:34.186Z,14.93
2018-08-03T20:44:03.890Z,14.43
2018-08-03T20:46:32.373Z,14.23
2018-08-03T20:49:01.052Z,14.50
2018-08-03T20:51:29.195Z,14.90
2018-08-03T20:54:04.856Z,12.97
2018-08-03T20:56:33.049Z,13.77
2018-08-03T20:59:00.991Z,13.17
2018-08-03T21:01:28.808Z,13.17
2018-08-03T21:03:57.913Z,13.10
2018-08-03T21:06:25.818Z,12.07
2018-08-03T21:08:53.747Z,12.40
2018-08-03T21:11:21.806Z,12.50
2018-08-03T21:13:49.637Z,12.27
2018-08-03T21:16:21.604Z,12.77
2018-08-03T21:18:49.518Z,13.60
2018-08-03T21:21:18.586Z,13.60
2018-08-03T21:23:46.597Z,15.23
2018-08-03T21:26:15.720Z,13.53
2018-08-03T21:28:43.744Z,12.67
2018-08-03T21:31:11.707Z,12.43
2018-08-03T21:33:45.597Z,13.50
2018-08-03T21:36:13.496Z,13.60
2018-08-03T21:38:41.383Z,14.43
2018-08-03T21:41:09.301Z,13.63
2018-08-03T21:43:38.568Z,13.37
2018-08-03T21:46:07.077Z,14.03
2018-08-03T21:48:35.460Z,13.57
2018-08-03T21:51:04.558Z,12.73
2018-08-03T21:53:32.853Z,12.63
2018-08-03T21:56:00.770Z,14.40
2018-08-03T21:58:29.695Z,12.67
2018-08-03T22:00:57.669Z,14.47
2018-08-03T22:03:25.433Z,15.13
2018-08-03T22:05:53.496Z,16.40
2018-08-03T22:08:21.141Z,16.20
2018-08-03T22:10:48.969Z,13.13
2018-08-03T22:13:16.757Z,12.87
2018-08-03T22:15:46.501Z,12.30
2018-08-03T22:18:14.445Z,13.30
2018-08-03T22:20:42.231Z,13.53
2018-08-03T22:23:10.129Z,12.90
2018-08-03T22:25:38.041Z,13.23
2018-08-03T22:28:18.464Z,13.73
2018-08-03T22:30:46.289Z,13.67
2018-08-03T22:33:14.020Z,13.10
2018-08-03T22:35:52.947Z,12.63
2018-08-03T22:38:20.724Z,13.13
2018-08-03T22:41:01.614Z,13.00
2018-08-03T22:43:29.338Z,15.10
2018-08-03T22:45:57.009Z,15.23
2018-08-03T22:48:24.847Z,14.07
2018-08-03T22:50:52.662Z,14.30
2018-08-03T22:53:20.492Z,13.20
2018-08-03T22:55:49.337Z,13.63
2018-08-03T22:58:17.114Z,13.17
2018-08-03T23:00:44.933Z,13.63
2018-08-03T23:03:12.692Z,13.27
2018-08-03T23:05:40.491Z,13.27
2018-08-03T23:08:08.484Z,13.70
2018-08-03T23:10:36.216Z,13.27
2018-08-03T23:13:03.997Z,13.40
2018-08-03T23:15:31.773Z,14.77
2018-08-03T23:17:59.550Z,13.90
2018-08-03T23:20:27.325Z,13.50
2018-08-03T23:22:55.105Z,13.30
2018-08-03T23:25:39.893Z,13.03
2018-08-03T23:28:07.666Z,14.57
2018-08-03T23:30:35.481Z,14.13
2018-08-03T23:33:03.343Z,13.27
2018-08-03T23:35:31.094Z,14.83
2018-08-03T23:37:58.799Z,14.50
2018-08-03T23:40:26.721Z,13.97
2018-08-03T23:42:54.430Z,13.83
2018-08-03T23:45:22.391Z,15.90
2018-08-03T23:47:50.361Z,14.57
2018-08-03T23:50:18.729Z,14.13
2018-08-03T23:52:48.050Z,13.47
2018-08-03T23:55:16.211Z,15.33
2018-08-03T23:57:49.958Z,14.70
